Time;durP1;ratioP1;P1;durP2;ratioP2;P2;SDS_P1;SDS_P2;PMS_P1;PMS_P2;Temp;Humidity;BMP_temperature;BMP_pressure;BME280_temperature;BME280_humidity;BME280_pressure;Samples;Min_cycle;Max_cycle;Signal;HPM_P1;HPM_P2
2022/10/04 00:02:26;;;;;;;;;;;22.00;47.80;20.80;101956.00;;;;5067530;28;19923;-72
2022/10/04 00:05:14;;;;;;;;;;;22.00;47.80;20.80;101953.00;;;;5098175;28;19920;-72
2022/10/04 00:08:18;;;;;;;;;;;22.00;47.80;20.80;101952.00;;;;5083403;28;20008;-72
2022/10/04 00:11:14;;;;;;;;;;;22.00;47.80;20.80;101950.00;;;;5077273;28;19916;-72
2022/10/04 00:14:05;;;;;;;;;;;22.00;47.80;20.80;101943.00;;;;5091605;28;20246;-72
2022/10/04 00:16:51;;;;;;;;;;;22.00;47.80;20.80;101942.00;;;;5094295;28;19919;-72
2022/10/04 00:19:45;;;;;;;;;;;22.00;47.80;20.70;101942.00;;;;5108744;28;19919;-72
2022/10/04 00:22:31;;;;;;;;;;;22.00;47.80;20.80;101939.00;;;;5096564;28;20031;-72
2022/10/04 00:25:18;;;;;;;;;;;22.00;47.80;20.80;101939.00;;;;5090914;28;19939;-72
2022/10/04 00:28:38;;;;;;;;;;;21.90;47.70;20.70;101938.00;;;;5092724;28;20385;-72
2022/10/04 00:31:25;;;;;;;;;;;22.00;47.80;20.70;101922.00;;;;5086383;28;20166;-72
2022/10/04 00:34:11;;;;;;;;;;;22.00;47.80;20.80;101930.00;;;;5103849;28;20423;-72
2022/10/04 00:36:57;;;;;;;;;;;22.00;47.80;20.70;101932.00;;;;5093667;28;20324;-72
2022/10/04 00:39:44;;;;;;;;;;;22.00;47.80;20.80;101926.00;;;;5092138;28;20254;-72
2022/10/04 00:42:49;;;;;;;;;;;22.00;47.80;20.70;101903.00;;;;5092637;28;20414;-72
2022/10/04 00:45:40;;;;;;;;;;;22.00;47.80;20.80;101908.00;;;;5095003;28;20029;-72
2022/10/04 00:48:45;;;;;;;;;;;22.00;47.80;20.70;101909.00;;;;5088669;28;20504;-72
2022/10/04 00:51:42;;;;;;;;;;;22.00;47.80;20.70;101910.00;;;;5075437;28;19920;-72
2022/10/04 00:54:32;;;;;;;;;;;22.00;47.80;20.70;101910.00;;;;5094962;28;19920;-72
2022/10/04 00:57:33;;;;;;;;;;;22.00;47.80;20.70;101907.00;;;;5080137;28;19943;-72
2022/10/04 01:00:20;;;;;;;;;;;22.00;47.80;20.70;101913.00;;;;5093489;28;19919;-72
2022/10/04 01:03:09;;;;;;;;;;;22.00;47.80;20.70;101908.00;;;;5099608;28;20323;-72
2022/10/04 01:06:00;;;;;;;;;;;22.00;47.80;20.70;101898.00;;;;5097014;28;19997;-72
2022/10/04 01:08:54;;;;;;;;;;;21.90;47.70;20.70;101886.00;;;;5097819;27;20019;-72
2022/10/04 01:11:45;;;;;;;;;;;22.00;47.80;20.70;101885.00;;;;5097635;28;19923;-72
2022/10/04 01:14:48;;;;;;;;;;;22.00;47.80;20.70;101896.00;;;;5081517;28;19920;-72
2022/10/04 01:17:34;;;;;;;;;;;22.00;47.80;20.70;101892.00;;;;5105498;27;20297;-72
2022/10/04 01:20:30;;;;;;;;;;;22.00;47.80;20.70;101897.00;;;;5096546;28;19919;-71
2022/10/04 01:23:51;;;;;;;;;;;22.00;47.80;20.70;101888.00;;;;5106838;27;19920;-73
2022/10/04 01:26:41;;;;;;;;;;;21.90;47.70;20.70;101889.00;;;;5095099;28;19920;-72
2022/10/04 01:29:30;;;;;;;;;;;21.90;47.70;20.70;101891.00;;;;5106973;27;19919;-72
2022/10/04 01:32:16;;;;;;;;;;;21.90;47.70;20.70;101889.00;;;;5108010;27;20285;-72
2022/10/04 01:35:02;;;;;;;;;;;22.00;47.80;20.70;101894.00;;;;5106181;27;19919;-72
2022/10/04 01:37:48;;;;;;;;;;;21.90;47.70;20.70;101884.00;;;;5081286;28;19916;-72
2022/10/04 01:40:34;;;;;;;;;;;22.00;47.80;20.70;101886.00;;;;5092958;28;20292;-72
2022/10/04 01:43:24;;;;;;;;;;;21.90;47.70;20.70;101892.00;;;;5095603;28;20037;-72
2022/10/04 01:46:12;;;;;;;;;;;21.90;47.70;20.70;101876.00;;;;5092549;28;19961;-72
2022/10/04 01:48:59;;;;;;;;;;;22.00;47.80;20.70;101862.00;;;;5109703;27;19916;-72
2022/10/04 01:51:55;;;;;;;;;;;22.00;47.80;20.70;101858.00;;;;5086544;28;19935;-72
2022/10/04 01:54:42;;;;;;;;;;;22.00;47.80;20.70;101853.00;;;;5077169;28;20369;-72
2022/10/04 01:57:37;;;;;;;;;;;21.90;47.70;20.70;101850.00;;;;5097634;28;19920;-72
2022/10/04 02:00:23;;;;;;;;;;;22.00;47.80;20.70;101851.00;;;;5109499;27;19920;-72
2022/10/04 02:03:16;;;;;;;;;;;22.00;47.80;20.70;101851.00;;;;5112692;27;20328;-72
2022/10/04 02:06:04;;;;;;;;;;;22.00;47.80;20.70;101846.00;;;;5108490;27;19955;-72
2022/10/04 02:08:50;;;;;;;;;;;21.90;47.70;20.70;101846.00;;;;5091997;28;19916;-72
2022/10/04 02:11:38;;;;;;;;;;;21.90;47.70;20.70;101846.00;;;;5091831;28;19927;-72
2022/10/04 02:14:26;;;;;;;;;;;22.00;47.80;20.70;101839.00;;;;5094183;28;20324;-72
2022/10/04 02:17:12;;;;;;;;;;;21.90;47.70;20.70;101844.00;;;;5099761;28;19920;-72
2022/10/04 02:19:58;;;;;;;;;;;22.00;47.80;20.70;101845.00;;;;5092110;28;19923;-72
2022/10/04 02:22:45;;;;;;;;;;;22.00;47.80;20.70;101832.00;;;;5093871;28;19920;-72
2022/10/04 02:25:31;;;;;;;;;;;21.90;47.80;20.70;101833.00;;;;5092488;28;20046;-72
2022/10/04 02:28:17;;;;;;;;;;;21.90;47.70;20.70;101833.00;;;;5107041;27;20284;-72
2022/10/04 02:34:08;;;;;;;;;;;21.90;47.70;20.70;101821.00;;;;5091609;28;19980;-72
2022/10/04 02:36:54;;;;;;;;;;;21.90;47.70;20.70;101822.00;;;;5089806;28;19916;-72
2022/10/04 02:39:46;;;;;;;;;;;22.00;47.80;20.70;101821.00;;;;5070433;28;19920;-72
2022/10/04 02:42:32;;;;;;;;;;;21.90;47.70;20.70;101812.00;;;;5095904;28;20307;-72
2022/10/04 02:45:23;;;;;;;;;;;21.90;47.70;20.70;101815.00;;;;5090353;28;19945;-72
2022/10/04 02:48:22;;;;;;;;;;;21.90;47.70;20.70;101819.00;;;;5091128;28;20265;-72
2022/10/04 02:51:45;;;;;;;;;;;21.90;47.70;20.70;101815.00;;;;5074785;28;19916;-72
2022/10/04 02:54:42;;;;;;;;;;;21.90;47.70;20.70;101819.00;;;;5093261;28;19927;-72
2022/10/04 02:57:29;;;;;;;;;;;21.90;47.70;20.70;101811.00;;;;5100603;27;20418;-72
2022/10/04 03:00:15;;;;;;;;;;;22.00;47.80;20.70;101812.00;;;;5108071;27;19923;-72
2022/10/04 03:03:19;;;;;;;;;;;21.90;47.70;20.70;101819.00;;;;5093928;28;19959;-72
2022/10/04 03:06:10;;;;;;;;;;;21.90;47.80;20.70;101823.00;;;;5095236;28;20088;-72
2022/10/04 03:08:58;;;;;;;;;;;21.90;47.70;20.70;101816.00;;;;5094945;28;20317;-72
2022/10/04 03:11:45;;;;;;;;;;;21.90;47.70;20.70;101816.00;;;;5082227;28;19924;-72
2022/10/04 03:14:31;;;;;;;;;;;21.90;47.70;20.70;101797.00;;;;5090583;28;19916;-72
2022/10/04 03:17:17;;;;;;;;;;;21.90;47.70;20.70;101783.00;;;;5084953;28;19916;-72
2022/10/04 03:20:04;;;;;;;;;;;21.90;47.70;20.70;101777.00;;;;5077098;28;20258;-72
2022/10/04 03:22:54;;;;;;;;;;;21.90;47.70;20.70;101779.00;;;;5094830;28;19958;-72
2022/10/04 03:25:47;;;;;;;;;;;21.90;48.40;20.70;101774.00;;;;5092607;28;19916;-72
2022/10/04 03:28:33;;;;;;;;;;;21.90;47.70;20.60;101774.00;;;;5091256;28;20403;-72
2022/10/04 03:31:19;;;;;;;;;;;21.90;47.70;20.70;101781.00;;;;5096415;28;20311;-72
2022/10/04 03:34:05;;;;;;;;;;;21.90;47.70;20.60;101779.00;;;;5078889;28;19924;-72
2022/10/04 03:36:52;;;;;;;;;;;21.90;47.70;20.70;101785.00;;;;5097317;28;20367;-72
2022/10/04 03:39:40;;;;;;;;;;;21.90;47.70;20.70;101792.00;;;;5104036;27;19927;-72
2022/10/04 03:42:28;;;;;;;;;;;21.90;47.80;20.70;101792.00;;;;5091693;28;20325;-72
2022/10/04 03:45:16;;;;;;;;;;;21.90;47.70;20.70;101782.00;;;;5088754;28;19924;-72
2022/10/04 03:48:06;;;;;;;;;;;21.90;47.70;20.70;101773.00;;;;5090822;28;20396;-72
2022/10/04 03:50:52;;;;;;;;;;;21.90;47.70;20.70;101772.00;;;;5102018;28;19916;-72
2022/10/04 03:53:42;;;;;;;;;;;21.90;47.70;20.70;101772.00;;;;5094906;28;20329;-72
2022/10/04 03:56:32;;;;;;;;;;;21.90;47.70;20.70;101769.00;;;;5094211;28;19920;-72
2022/10/04 03:59:18;;;;;;;;;;;22.00;47.80;20.70;101757.00;;;;5112098;28;19916;-72
2022/10/04 04:02:28;;;;;;;;;;;21.90;47.70;20.70;101769.00;;;;5109386;28;19927;-72
2022/10/04 04:05:15;;;;;;;;;;;21.90;47.70;20.70;101764.00;;;;5095307;28;19920;-72
2022/10/04 04:08:13;;;;;;;;;;;21.90;47.70;20.70;101759.00;;;;5104140;28;20405;-72
2022/10/04 04:11:01;;;;;;;;;;;21.90;47.70;20.70;101755.00;;;;5096088;28;19920;-72
2022/10/04 04:13:53;;;;;;;;;;;21.90;47.70;20.70;101749.00;;;;5090568;28;19932;-72
2022/10/04 04:16:39;;;;;;;;;;;22.00;47.80;20.70;101750.00;;;;5108113;28;20002;-72
2022/10/04 04:19:25;;;;;;;;;;;21.90;47.70;20.70;101741.00;;;;5097774;28;19920;-72
2022/10/04 04:22:14;;;;;;;;;;;21.90;47.70;20.70;101751.00;;;;5106649;28;19919;-72
2022/10/04 04:25:01;;;;;;;;;;;21.90;47.70;20.70;101750.00;;;;5091682;28;19916;-72
2022/10/04 04:27:48;;;;;;;;;;;21.90;47.70;20.70;101747.00;;;;5093780;28;19920;-72
2022/10/04 04:30:34;;;;;;;;;;;21.90;47.70;20.70;101756.00;;;;5099387;28;19919;-72
2022/10/04 04:33:28;;;;;;;;;;;22.00;47.80;20.70;101750.00;;;;5096544;28;20285;-72
2022/10/04 04:36:15;;;;;;;;;;;22.00;47.80;20.70;101755.00;;;;5114834;27;19923;-72
2022/10/04 04:39:33;;;;;;;;;;;21.90;47.70;20.60;101751.00;;;;5098685;28;19971;-72
2022/10/04 04:42:32;;;;;;;;;;;21.90;47.70;20.60;101746.00;;;;5099757;28;20262;-72
2022/10/04 04:45:21;;;;;;;;;;;21.90;47.70;20.60;101749.00;;;;5066613;28;19920;-72
2022/10/04 04:48:07;;;;;;;;;;;21.90;47.70;20.60;101757.00;;;;5118745;27;19922;-72
2022/10/04 04:50:56;;;;;;;;;;;21.90;47.70;20.60;101746.00;;;;5096288;28;19973;-72
2022/10/04 04:53:42;;;;;;;;;;;21.90;47.70;20.60;101752.00;;;;5110471;27;19974;-72
2022/10/04 04:56:28;;;;;;;;;;;21.90;47.70;20.60;101754.00;;;;5079928;28;20280;-72
2022/10/04 04:59:14;;;;;;;;;;;21.90;48.00;20.60;101758.00;;;;5078825;28;20380;-72
2022/10/04 05:02:00;;;;;;;;;;;21.90;47.70;20.60;101759.00;;;;5093178;28;20357;-72
2022/10/04 05:04:49;;;;;;;;;;;22.00;47.70;20.60;101757.00;;;;5077360;28;19926;-72
2022/10/04 05:07:35;;;;;;;;;;;21.90;47.70;20.60;101758.00;;;;5072991;28;19932;-72
2022/10/04 05:10:33;;;;;;;;;;;21.90;47.70;20.60;101755.00;;;;5072739;28;19916;-73
2022/10/04 05:13:19;;;;;;;;;;;21.90;47.70;20.60;101750.00;;;;5089156;27;19931;-72
2022/10/04 05:16:10;;;;;;;;;;;21.90;47.70;20.60;101756.00;;;;5091417;28;19928;-72
2022/10/04 05:19:00;;;;;;;;;;;21.90;47.70;20.60;101752.00;;;;5073815;28;19932;-72
2022/10/04 05:21:47;;;;;;;;;;;21.80;47.60;20.60;101753.00;;;;5077008;28;19935;-72
2022/10/04 05:24:35;;;;;;;;;;;21.90;47.70;20.60;101752.00;;;;5086909;28;19920;-72
2022/10/04 05:27:31;;;;;;;;;;;21.90;47.70;20.60;101746.00;;;;5072623;28;19916;-72
2022/10/04 05:30:40;;;;;;;;;;;21.80;47.70;20.60;101741.00;;;;5078327;28;20326;-72
2022/10/04 05:33:38;;;;;;;;;;;21.80;47.70;20.60;101743.00;;;;5086702;28;19920;-72
2022/10/04 05:36:24;;;;;;;;;;;21.80;47.60;20.60;101737.00;;;;5072539;28;19916;-72
2022/10/04 05:39:29;;;;;;;;;;;21.80;47.60;20.60;101738.00;;;;5075645;28;20619;-72
2022/10/04 05:42:17;;;;;;;;;;;21.80;47.60;20.50;101738.00;;;;5068912;28;19935;-72
2022/10/04 05:45:22;;;;;;;;;;;21.80;47.70;20.50;101738.00;;;;5089295;27;19920;-72
2022/10/04 05:48:08;;;;;;;;;;;21.80;47.70;20.60;101745.00;;;;5088318;28;19917;-72
2022/10/04 05:50:54;;;;;;;;;;;21.80;47.60;20.60;101748.00;;;;5087175;28;19924;-72
2022/10/04 05:53:40;;;;;;;;;;;21.80;47.70;20.50;101748.00;;;;5062609;28;20381;-72
2022/10/04 05:56:33;;;;;;;;;;;21.80;48.00;20.60;101749.00;;;;5075121;28;19920;-72
2022/10/04 05:59:38;;;;;;;;;;;21.80;47.70;20.50;101744.00;;;;5082112;28;19921;-72
2022/10/04 06:02:39;;;;;;;;;;;21.80;47.60;20.50;101755.00;;;;5071329;28;19926;-72
2022/10/04 06:05:54;;;;;;;;;;;21.80;47.60;20.50;101747.00;;;;5077022;28;20340;-72
2022/10/04 06:08:49;;;;;;;;;;;21.80;47.60;20.50;101746.00;;;;5081739;28;20441;-72
2022/10/04 06:11:44;;;;;;;;;;;21.80;47.70;20.50;101749.00;;;;5085753;28;20274;-72
2022/10/04 06:14:48;;;;;;;;;;;21.80;47.60;20.50;101739.00;;;;5077196;28;19921;-72
2022/10/04 06:17:58;;;;;;;;;;;21.80;47.60;20.50;101741.00;;;;5071574;28;20436;-72
2022/10/04 06:20:53;;;;;;;;;;;21.80;47.60;20.50;101739.00;;;;5070855;28;19923;-72
2022/10/04 06:23:52;;;;;;;;;;;21.80;47.60;20.50;101737.00;;;;5081371;28;20388;-72
2022/10/04 06:26:51;;;;;;;;;;;21.80;47.60;20.50;101736.00;;;;5069819;28;19916;-71
2022/10/04 06:29:39;;;;;;;;;;;21.80;47.60;20.50;101733.00;;;;5067705;28;19924;-72
2022/10/04 06:32:43;;;;;;;;;;;21.80;47.60;20.50;101730.00;;;;5073398;28;19931;-71
2022/10/04 06:36:06;;;;;;;;;;;21.80;47.60;20.50;101727.00;;;;5074305;28;20049;-72
2022/10/04 06:39:01;;;;;;;;;;;21.80;47.60;20.50;101725.00;;;;5072175;28;20279;-71
2022/10/04 06:42:08;;;;;;;;;;;21.80;47.60;20.50;101722.00;;;;5069899;28;19923;-71
2022/10/04 06:45:00;;;;;;;;;;;21.80;47.60;20.50;101722.00;;;;5095027;27;19999;-71
2022/10/04 06:48:07;;;;;;;;;;;21.80;47.70;20.50;101726.00;;;;5076014;28;19928;-71
2022/10/04 06:51:16;;;;;;;;;;;21.70;47.60;20.50;101730.00;;;;5076145;28;19916;-72
2022/10/04 06:54:34;;;;;;;;;;;21.70;47.60;20.50;101727.00;;;;5072328;28;19931;-72
2022/10/04 06:57:39;;;;;;;;;;;21.80;47.60;20.50;101725.00;;;;5074669;28;19955;-71
2022/10/04 07:00:25;;;;;;;;;;;21.80;47.60;20.50;101729.00;;;;5082876;28;19924;-71
2022/10/04 07:03:16;;;;;;;;;;;21.70;47.60;20.50;101738.00;;;;5070264;28;20320;-72
2022/10/04 07:06:03;;;;;;;;;;;21.80;47.60;20.50;101750.00;;;;5073662;28;20389;-71
2022/10/04 07:08:50;;;;;;;;;;;21.80;47.60;20.50;101760.00;;;;5084225;27;19917;-72
2022/10/04 07:11:42;;;;;;;;;;;21.80;47.60;20.50;101762.00;;;;5073034;28;19927;-72
2022/10/04 07:14:30;;;;;;;;;;;21.80;47.60;20.50;101751.00;;;;5079908;28;20344;-71
2022/10/04 07:17:20;;;;;;;;;;;21.80;47.60;20.50;101752.00;;;;5068124;28;20440;-71
2022/10/04 07:20:06;;;;;;;;;;;21.80;47.50;20.50;101746.00;;;;5088314;28;19915;-71
2022/10/04 07:23:04;;;;;;;;;;;21.80;47.50;20.50;101753.00;;;;5091174;28;20109;-72
2022/10/04 07:25:51;;;;;;;;;;;21.80;47.50;20.50;101751.00;;;;5065561;28;19920;-71
2022/10/04 07:31:43;;;;;;;;;;;21.80;47.50;20.50;101752.00;;;;5084977;27;19920;-72
2022/10/04 07:34:31;;;;;;;;;;;21.70;47.50;20.50;101749.00;;;;5069846;28;19921;-72
2022/10/04 07:37:17;;;;;;;;;;;21.80;47.50;20.50;101757.00;;;;5072963;28;19947;-72
2022/10/04 07:40:07;;;;;;;;;;;21.80;47.50;20.50;101752.00;;;;5070597;28;20451;-72
2022/10/04 07:42:59;;;;;;;;;;;21.80;47.50;20.50;101770.00;;;;5093553;27;19926;-72
2022/10/04 07:45:45;;;;;;;;;;;21.80;47.50;20.50;101761.00;;;;5085082;27;19932;-72
2022/10/04 07:48:31;;;;;;;;;;;21.80;47.50;20.50;101761.00;;;;5085353;28;19927;-71
2022/10/04 07:51:39;;;;;;;;;;;21.80;47.50;20.50;101766.00;;;;5065313;28;19922;-72
2022/10/04 07:54:51;;;;;;;;;;;21.80;47.50;20.50;101766.00;;;;5065902;28;20328;-71
2022/10/04 07:57:57;;;;;;;;;;;21.80;47.50;20.50;101763.00;;;;5088566;28;20289;-72
2022/10/04 08:00:48;;;;;;;;;;;21.80;47.60;20.50;101759.00;;;;5085668;28;20378;-72
2022/10/04 08:03:44;;;;;;;;;;;21.80;47.50;20.50;101762.00;;;;5089473;28;20292;-71
2022/10/04 08:06:35;;;;;;;;;;;21.80;47.50;20.50;101763.00;;;;5088359;28;19920;-71
2022/10/04 08:09:51;;;;;;;;;;;21.80;47.50;20.50;101759.00;;;;5069664;28;19966;-73
2022/10/04 08:12:53;;;;;;;;;;;21.90;47.50;20.50;101765.00;;;;5076346;28;20331;-72
2022/10/04 08:15:40;;;;;;;;;;;21.80;47.50;20.50;101755.00;;;;5072904;28;19920;-72
2022/10/04 08:18:42;;;;;;;;;;;21.80;47.50;20.50;101760.00;;;;5086421;28;19963;-72
2022/10/04 08:21:31;;;;;;;;;;;21.80;47.50;20.50;101752.00;;;;5064928;28;19945;-72
2022/10/04 08:24:30;;;;;;;;;;;21.80;47.50;20.50;101755.00;;;;5089329;27;19923;-73
2022/10/04 08:27:28;;;;;;;;;;;21.80;47.50;20.50;101753.00;;;;5088313;27;19926;-76
2022/10/04 08:30:14;;;;;;;;;;;21.80;47.50;20.50;101754.00;;;;5075754;28;19920;-72
2022/10/04 08:33:18;;;;;;;;;;;21.80;47.50;20.50;101742.00;;;;5067814;28;20297;-71
2022/10/04 08:36:10;;;;;;;;;;;21.80;47.50;20.50;101735.00;;;;5073783;28;19942;-72
2022/10/04 08:38:57;;;;;;;;;;;21.80;47.50;20.50;101731.00;;;;5071835;28;19928;-72
2022/10/04 08:41:52;;;;;;;;;;;21.80;47.50;20.50;101728.00;;;;5063561;28;19920;-72
2022/10/04 08:45:11;;;;;;;;;;;21.80;47.50;20.50;101722.00;;;;5086873;28;19923;-72
2022/10/04 08:48:18;;;;;;;;;;;21.80;47.50;20.50;101722.00;;;;5058680;28;19920;-72
2022/10/04 08:51:41;;;;;;;;;;;21.80;47.50;20.50;101715.00;;;;5075759;28;20429;-72
2022/10/04 08:54:40;;;;;;;;;;;21.80;47.50;20.50;101714.00;;;;5077233;28;19920;-72
2022/10/04 08:57:49;;;;;;;;;;;21.80;47.50;20.50;101713.00;;;;5052106;28;19967;-72
2022/10/04 09:01:00;;;;;;;;;;;21.80;47.60;20.50;101713.00;;;;5087121;28;19929;-72
2022/10/04 09:04:04;;;;;;;;;;;21.80;48.30;20.50;101717.00;;;;5075715;28;19916;-72
2022/10/04 09:07:02;;;;;;;;;;;21.80;47.60;20.50;101715.00;;;;5079848;28;19981;-71
2022/10/04 09:10:18;;;;;;;;;;;21.80;47.60;20.50;101705.00;;;;5087772;28;19916;-72
2022/10/04 09:13:29;;;;;;;;;;;21.80;47.60;20.50;101710.00;;;;5093734;27;19924;-72
2022/10/04 09:16:16;;;;;;;;;;;21.90;47.70;20.50;101709.00;;;;5060936;28;19970;-72
2022/10/04 09:19:32;;;;;;;;;;;21.80;47.60;20.50;101702.00;;;;5076874;28;20294;-72
2022/10/04 09:22:32;;;;;;;;;;;21.80;47.60;20.50;101698.00;;;;5079357;28;19928;-71
2022/10/04 09:25:30;;;;;;;;;;;21.80;47.60;20.50;101689.00;;;;5078555;28;20253;-72
2022/10/04 09:28:42;;;;;;;;;;;21.80;47.60;20.50;101693.00;;;;5083975;28;19923;-74
2022/10/04 09:31:37;;;;;;;;;;;21.80;47.50;20.50;101695.00;;;;5067209;28;19920;-72
2022/10/04 09:34:45;;;;;;;;;;;21.80;47.50;20.50;101696.00;;;;5072844;28;19930;-72
2022/10/04 09:37:37;;;;;;;;;;;21.80;47.50;20.50;101699.00;;;;5070917;28;19931;-75
2022/10/04 09:41:00;;;;;;;;;;;21.90;47.60;20.50;101692.00;;;;5058795;28;19923;-71
2022/10/04 09:44:02;;;;;;;;;;;21.80;47.60;20.50;101693.00;;;;5089844;27;20273;-74
2022/10/04 09:47:11;;;;;;;;;;;21.80;47.60;20.50;101689.00;;;;5073694;28;19917;-71
2022/10/04 09:50:25;;;;;;;;;;;21.80;47.60;20.50;101691.00;;;;5076784;28;19927;-71
2022/10/04 09:53:33;;;;;;;;;;;21.90;47.70;20.50;101692.00;;;;5078449;28;19993;-71
2022/10/04 09:56:37;;;;;;;;;;;21.80;47.70;20.50;101695.00;;;;5079007;28;19923;-71
2022/10/04 09:59:50;;;;;;;;;;;21.80;48.30;20.50;101691.00;;;;5078151;28;20696;-71
2022/10/04 10:03:02;;;;;;;;;;;21.80;47.60;20.50;101688.00;;;;5073518;28;20006;-71
2022/10/04 10:06:12;;;;;;;;;;;21.80;47.60;20.50;101678.00;;;;5082639;28;20280;-71
2022/10/04 10:09:01;;;;;;;;;;;21.90;47.70;20.50;101677.00;;;;5083181;28;19962;-71
2022/10/04 10:15:26;;;;;;;;;;;21.90;47.70;20.50;101675.00;;;;5072104;28;19923;-70
2022/10/04 10:18:15;;;;;;;;;;;21.90;47.70;20.50;101670.00;;;;5068928;28;20014;-73
2022/10/04 10:21:20;;;;;;;;;;;21.90;47.70;20.50;101681.00;;;;5058628;28;20280;-72
2022/10/04 10:24:21;;;;;;;;;;;21.90;47.70;20.50;101677.00;;;;5073051;28;19921;-72
2022/10/04 10:27:18;;;;;;;;;;;21.90;47.60;20.50;101677.00;;;;5087723;27;20540;-72
2022/10/04 10:30:20;;;;;;;;;;;21.90;47.60;20.50;101674.00;;;;5083634;28;20022;-72
2022/10/04 10:33:23;;;;;;;;;;;21.90;47.60;20.50;101681.00;;;;5085890;27;19924;-72
2022/10/04 10:36:33;;;;;;;;;;;21.90;47.60;20.50;101684.00;;;;5061246;28;19920;-72
2022/10/04 10:39:40;;;;;;;;;;;21.90;47.60;20.50;101682.00;;;;5087227;27;20358;-72
2022/10/04 10:42:37;;;;;;;;;;;21.90;47.50;20.50;101681.00;;;;5073075;28;19920;-75
2022/10/04 10:45:44;;;;;;;;;;;21.90;47.50;20.50;101680.00;;;;5072421;28;19969;-71
2022/10/04 10:48:37;;;;;;;;;;;21.90;47.50;20.50;101685.00;;;;5073410;28;19923;-72
2022/10/04 10:51:42;;;;;;;;;;;21.90;47.50;20.50;101678.00;;;;5088646;27;20071;-71
2022/10/04 10:54:38;;;;;;;;;;;21.90;47.50;20.50;101680.00;;;;5076004;28;19923;-71
2022/10/04 10:58:01;;;;;;;;;;;21.90;47.40;20.50;101679.00;;;;5089147;28;19924;-71
2022/10/04 11:00:56;;;;;;;;;;;21.90;47.50;20.50;101673.00;;;;5067468;28;19920;-71
2022/10/04 11:04:05;;;;;;;;;;;21.90;47.50;20.50;101674.00;;;;5075083;28;19920;-71
2022/10/04 11:07:02;;;;;;;;;;;21.90;47.50;20.50;101667.00;;;;5085706;28;19999;-70
2022/10/04 11:09:57;;;;;;;;;;;21.90;47.50;20.50;101661.00;;;;5086205;28;19917;-71
2022/10/04 11:13:25;;;;;;;;;;;21.90;47.50;20.50;101653.00;;;;5072063;28;20002;-71
2022/10/04 11:16:49;;;;;;;;;;;21.90;47.50;20.50;101648.00;;;;5066645;28;19920;-71
2022/10/04 11:20:10;;;;;;;;;;;21.90;47.50;20.50;101644.00;;;;5075000;28;20361;-71
2022/10/04 11:23:37;;;;;;;;;;;21.90;47.50;20.50;101638.00;;;;5087938;28;19923;-71
2022/10/04 11:26:48;;;;;;;;;;;21.90;47.50;20.60;101631.00;;;;5010955;28;20468;-71
2022/10/04 11:30:08;;;;;;;;;;;21.90;47.50;20.60;101621.00;;;;5065297;28;19920;-71
2022/10/04 11:33:16;;;;;;;;;;;21.90;47.50;20.60;101620.00;;;;5050438;28;20408;-71
2022/10/04 11:36:29;;;;;;;;;;;21.90;47.50;20.60;101606.00;;;;5054524;28;19920;-71
2022/10/04 11:39:34;;;;;;;;;;;21.90;47.40;20.60;101621.00;;;;5073909;28;19924;-71
2022/10/04 11:42:25;;;;;;;;;;;22.00;47.50;20.60;101609.00;;;;5078138;28;19999;-71
2022/10/04 11:45:20;;;;;;;;;;;22.00;47.50;20.60;101619.00;;;;5075855;28;19921;-71
2022/10/04 11:48:15;;;;;;;;;;;22.00;47.40;20.60;101615.00;;;;5081346;28;19991;-71
2022/10/04 11:51:47;;;;;;;;;;;22.00;47.50;20.60;101616.00;;;;5076224;28;20085;-71
2022/10/04 11:54:58;;;;;;;;;;;22.00;47.40;20.60;101620.00;;;;4984978;28;19926;-71
2022/10/04 11:57:54;;;;;;;;;;;22.00;47.40;20.60;101615.00;;;;4996587;28;20507;-70
2022/10/04 12:01:13;;;;;;;;;;;22.00;47.40;20.60;101612.00;;;;5056432;28;19923;-71
2022/10/04 12:04:06;;;;;;;;;;;22.00;47.40;20.60;101604.00;;;;5069241;28;20260;-71
2022/10/04 12:07:01;;;;;;;;;;;22.00;47.40;20.60;101603.00;;;;5064943;28;19939;-71
2022/10/04 12:09:59;;;;;;;;;;;22.00;47.40;20.60;101600.00;;;;5063576;28;19928;-71
2022/10/04 12:12:51;;;;;;;;;;;22.00;47.40;20.60;101603.00;;;;5059305;28;19986;-71
2022/10/04 12:15:44;;;;;;;;;;;22.00;47.40;20.70;101597.00;;;;5072104;28;20308;-71
2022/10/04 12:18:44;;;;;;;;;;;22.10;47.40;20.70;101589.00;;;;5086708;28;19925;-71
2022/10/04 12:21:45;;;;;;;;;;;22.00;47.30;20.70;101579.00;;;;5083387;28;19920;-71
2022/10/04 12:25:09;;;;;;;;;;;22.10;47.30;20.70;101579.00;;;;5080141;28;20276;-71
2022/10/04 12:28:14;;;;;;;;;;;22.10;47.30;20.70;101573.00;;;;5070267;28;19924;-71
2022/10/04 12:31:21;;;;;;;;;;;22.10;47.30;20.70;101577.00;;;;5087100;28;20378;-71
2022/10/04 12:34:16;;;;;;;;;;;22.10;47.30;20.70;101572.00;;;;5078886;28;19925;-71
2022/10/04 12:37:05;;;;;;;;;;;22.10;47.30;20.70;101563.00;;;;5073113;28;19916;-71
2022/10/04 12:40:02;;;;;;;;;;;22.10;47.20;20.70;101556.00;;;;5073479;28;19916;-71
2022/10/04 12:43:10;;;;;;;;;;;22.10;47.20;20.70;101548.00;;;;5046999;28;19924;-70
2022/10/04 12:46:03;;;;;;;;;;;22.20;47.30;20.80;101547.00;;;;5084881;28;20003;-71
2022/10/04 12:48:56;;;;;;;;;;;22.20;47.30;20.80;101538.00;;;;5091609;28;20014;-71
2022/10/04 12:51:50;;;;;;;;;;;22.20;47.30;20.80;101544.00;;;;5091665;28;20537;-71
2022/10/04 12:54:43;;;;;;;;;;;22.20;47.20;20.80;101537.00;;;;5087883;28;20019;-71
2022/10/04 12:57:49;;;;;;;;;;;22.20;47.20;20.80;101542.00;;;;5092920;28;19919;-71
2022/10/04 13:00:37;;;;;;;;;;;22.20;47.20;20.80;101545.00;;;;5087188;28;20006;-71
2022/10/04 13:03:49;;;;;;;;;;;22.30;47.20;20.80;101542.00;;;;5071694;28;19927;-71
2022/10/04 13:06:51;;;;;;;;;;;22.30;47.20;20.80;101538.00;;;;5095092;27;20297;-71
2022/10/04 13:09:56;;;;;;;;;;;22.30;47.20;20.80;101531.00;;;;5091397;28;20318;-71
2022/10/04 13:13:19;;;;;;;;;;;22.30;47.90;20.80;101526.00;;;;5074810;28;19932;-71
2022/10/04 13:16:27;;;;;;;;;;;22.30;47.10;20.80;101513.00;;;;5078588;28;19927;-71
2022/10/04 13:19:21;;;;;;;;;;;22.30;47.10;20.80;101520.00;;;;5088106;27;20003;-71
2022/10/04 13:22:14;;;;;;;;;;;22.30;47.10;20.90;101524.00;;;;5092004;28;20272;-71
2022/10/04 13:25:31;;;;;;;;;;;22.30;47.10;20.90;101518.00;;;;5080907;28;19920;-71
2022/10/04 13:28:20;;;;;;;;;;;22.30;47.00;20.90;101513.00;;;;5077887;28;19946;-71
2022/10/04 13:31:07;;;;;;;;;;;22.40;47.10;20.90;101512.00;;;;5076988;28;19916;-71
2022/10/04 13:34:19;;;;;;;;;;;22.40;47.10;20.90;101503.00;;;;5105258;27;19924;-71
2022/10/04 13:37:11;;;;;;;;;;;22.30;47.00;20.90;101494.00;;;;5098927;27;19960;-71
2022/10/04 13:40:23;;;;;;;;;;;22.40;47.10;20.90;101498.00;;;;5097021;27;19924;-71
2022/10/04 13:43:31;;;;;;;;;;;22.40;47.10;20.90;101493.00;;;;5098177;28;19934;-71
2022/10/04 13:46:32;;;;;;;;;;;22.40;47.00;20.90;101496.00;;;;5093815;28;20001;-71
2022/10/04 13:49:36;;;;;;;;;;;22.40;47.00;20.90;101498.00;;;;5102432;27;19987;-71
2022/10/04 13:59:34;;;;;;;;;;;22.40;47.00;20.90;101496.00;;;;5073719;28;20392;-71
2022/10/04 14:02:41;;;;;;;;;;;22.40;46.90;21.00;101494.00;;;;5091803;28;19920;-71
2022/10/04 14:06:06;;;;;;;;;;;22.40;46.90;21.00;101487.00;;;;5101342;27;19927;-71
2022/10/04 14:09:08;;;;;;;;;;;22.40;47.00;21.00;101487.00;;;;5096140;28;19950;-71
2022/10/04 14:12:14;;;;;;;;;;;22.40;46.90;21.00;101491.00;;;;5107281;27;19989;-71
2022/10/04 14:15:38;;;;;;;;;;;22.40;46.90;21.00;101488.00;;;;5095271;28;19915;-71
2022/10/04 14:19:07;;;;;;;;;;;22.50;46.90;21.00;101480.00;;;;5108167;27;19924;-71
2022/10/04 14:22:30;;;;;;;;;;;22.50;46.90;21.00;101471.00;;;;5055557;28;20281;-71
2022/10/04 14:25:38;;;;;;;;;;;22.50;46.90;21.00;101473.00;;;;5094978;28;19931;-71
2022/10/04 14:28:37;;;;;;;;;;;22.50;47.60;21.00;101473.00;;;;5096226;28;19924;-71
2022/10/04 14:31:45;;;;;;;;;;;22.50;46.90;21.00;101455.00;;;;5105055;27;20045;-71
2022/10/04 14:34:54;;;;;;;;;;;22.50;46.90;21.00;101456.00;;;;5107153;27;19921;-71